Hartford, Connecticut
Traffic Map
Current Weather Conditions
Hartford, Connecticut
Scattered Clouds
Scattered Clouds

Feels Like: 4°
Wind Chill: Ceiling: Unl
Heat Index: Visibility: 10mi
Dew Point: Wind: 0mph
Humidity: 79% Direction: ° ()
Pressure: 30.07in Gusts: 0mph
Raw Report DataKHFD 250753Z AUTO 00000KT 10SM SCT120 04/01 A3007 RMK AO2 SLP181 T00440011
Traffic Incident Summary
Active as of:
Severity:
Category:
InformationThere was an issue retrieving the traffic information for this location. Please try a different location or try again shortly.
Advertisements
Track Severe Weather on mobile